RYR2KD LEZL-LPPR
Flight info
| Callsign | RYR2KD |
|---|---|
| Flight time | 0h 56m |
| Altitude | 32000 |
| Route | SANTA M744 LASIB DCT ABLEG |
| Aircraft | B738/M-SDE3FGILRWY/SB1 |
Departure
| Time | 2026-04-17 11:58 |
|---|---|
| Airport | Seville Airport (LEZL) |
Arrival
| Time | 2026-04-17 12:54 |
|---|---|
| Airport | Francisco de Sá Carneiro Airport (LPPR) |
| Time | Latitude | Longitude | Altitude | Speed | Heading |
|---|---|---|---|---|---|
| 2026-04-17 11:51 | 37.42304 | -5.89653 | 93 ft | 0 kts | 74° |
| 2026-04-17 11:55 | 37.42304 | -5.89651 | 93 ft | 4 kts | 74° |
| 2026-04-17 11:55 | 37.42337 | -5.89584 | 95 ft | 12 kts | 20° |
| 2026-04-17 11:55 | 37.42373 | -5.89671 | 93 ft | 18 kts | 222° |
| 2026-04-17 11:55 | 37.42252 | -5.89776 | 93 ft | 25 kts | 220° |
| 2026-04-17 11:56 | 37.42173 | -5.89864 | 95 ft | 2 kts | 223° |
| 2026-04-17 11:56 | 37.42141 | -5.89903 | 93 ft | 11 kts | 225° |
| 2026-04-17 11:56 | 37.42072 | -5.89998 | 96 ft | 19 kts | 234° |
| 2026-04-17 11:56 | 37.41986 | -5.90129 | 94 ft | 18 kts | 243° |
| 2026-04-17 11:57 | 37.41982 | -5.90310 | 94 ft | 25 kts | 277° |
| 2026-04-17 11:57 | 37.41977 | -5.90525 | 92 ft | 22 kts | 268° |
| 2026-04-17 11:57 | 37.41973 | -5.90755 | 91 ft | 30 kts | 271° |
| 2026-04-17 11:57 | 37.41938 | -5.91012 | 89 ft | 31 kts | 240° |
| 2026-04-17 11:58 | 37.41827 | -5.91191 | 90 ft | 15 kts | 174° |
| 2026-04-17 11:58 | 37.41790 | -5.90847 | 93 ft | 87 kts | 89° |
| 2026-04-17 11:58 | 37.41790 | -5.89708 | 136 ft | 168 kts | 89° |
| 2026-04-17 11:58 | 37.41799 | -5.88140 | 936 ft | 194 kts | 89° |
| 2026-04-17 11:59 | 37.41826 | -5.86391 | 1587 ft | 205 kts | 90° |
| 2026-04-17 11:59 | 37.41788 | -5.84644 | 1546 ft | 189 kts | 92° |
| 2026-04-17 11:59 | 37.41744 | -5.83039 | 1636 ft | 184 kts | 91° |
| 2026-04-17 11:59 | 37.41770 | -5.81242 | 1841 ft | 227 kts | 75° |
| 2026-04-17 12:00 | 37.42683 | -5.79485 | 1986 ft | 252 kts | 38° |
| 2026-04-17 12:00 | 37.44312 | -5.78749 | 1987 ft | 257 kts | 1° |
| 2026-04-17 12:00 | 37.46024 | -5.79419 | 1990 ft | 266 kts | 324° |
| 2026-04-17 12:00 | 37.47049 | -5.81330 | 2580 ft | 269 kts | 283° |
| 2026-04-17 12:01 | 37.47355 | -5.83641 | 3752 ft | 267 kts | 279° |
| 2026-04-17 12:01 | 37.47760 | -5.85934 | 4792 ft | 271 kts | 284° |
| 2026-04-17 12:01 | 37.48348 | -5.88224 | 5748 ft | 277 kts | 289° |
| 2026-04-17 12:01 | 37.49088 | -5.90479 | 6707 ft | 281 kts | 293° |
| 2026-04-17 12:02 | 37.49941 | -5.92709 | 7601 ft | 285 kts | 296° |
| 2026-04-17 12:02 | 37.50872 | -5.94925 | 8524 ft | 288 kts | 298° |
| 2026-04-17 12:02 | 37.51857 | -5.97139 | 9439 ft | 291 kts | 299° |
| 2026-04-17 12:02 | 37.52876 | -5.99358 | 10328 ft | 296 kts | 300° |
| 2026-04-17 12:03 | 37.53962 | -6.01682 | 10664 ft | 321 kts | 300° |
| 2026-04-17 12:03 | 37.55138 | -6.04174 | 11067 ft | 339 kts | 300° |
| 2026-04-17 12:03 | 37.56359 | -6.06745 | 11861 ft | 343 kts | 300° |
| 2026-04-17 12:03 | 37.57584 | -6.09320 | 12794 ft | 343 kts | 300° |
| 2026-04-17 12:04 | 37.58812 | -6.11901 | 13724 ft | 343 kts | 300° |
| 2026-04-17 12:04 | 37.60031 | -6.14502 | 14510 ft | 347 kts | 299° |
| 2026-04-17 12:04 | 37.61238 | -6.17170 | 15130 ft | 355 kts | 298° |
| 2026-04-17 12:04 | 37.62461 | -6.19905 | 15840 ft | 359 kts | 298° |
| 2026-04-17 12:05 | 37.63697 | -6.22668 | 16553 ft | 364 kts | 298° |
| 2026-04-17 12:05 | 37.64955 | -6.25473 | 17212 ft | 370 kts | 298° |
| 2026-04-17 12:05 | 37.66235 | -6.28320 | 17880 ft | 376 kts | 298° |
| 2026-04-17 12:05 | 37.67532 | -6.31209 | 18509 ft | 381 kts | 297° |
| 2026-04-17 12:06 | 37.68840 | -6.34144 | 19118 ft | 385 kts | 297° |
| 2026-04-17 12:06 | 37.70147 | -6.37088 | 19837 ft | 385 kts | 297° |
| 2026-04-17 12:06 | 37.71458 | -6.40048 | 20543 ft | 386 kts | 298° |
| 2026-04-17 12:06 | 37.72756 | -6.42978 | 21175 ft | 389 kts | 298° |
| 2026-04-17 12:07 | 37.74102 | -6.46016 | 21788 ft | 393 kts | 298° |
| 2026-04-17 12:07 | 37.75424 | -6.49003 | 22404 ft | 396 kts | 297° |
| 2026-04-17 12:07 | 37.76774 | -6.52056 | 22988 ft | 399 kts | 297° |
| 2026-04-17 12:07 | 37.78133 | -6.55130 | 23597 ft | 402 kts | 297° |
| 2026-04-17 12:08 | 37.79495 | -6.58217 | 24115 ft | 404 kts | 297° |
| 2026-04-17 12:08 | 37.80871 | -6.61335 | 24603 ft | 407 kts | 297° |
| 2026-04-17 12:08 | 37.82253 | -6.64473 | 25048 ft | 410 kts | 297° |
| 2026-04-17 12:08 | 37.83648 | -6.67644 | 25518 ft | 414 kts | 297° |
| 2026-04-17 12:09 | 37.85052 | -6.70837 | 25963 ft | 416 kts | 297° |
| 2026-04-17 12:09 | 37.86464 | -6.74052 | 26416 ft | 419 kts | 297° |
| 2026-04-17 12:09 | 37.87884 | -6.77288 | 26903 ft | 421 kts | 297° |
| 2026-04-17 12:09 | 37.89302 | -6.80523 | 27511 ft | 419 kts | 297° |
| 2026-04-17 12:10 | 37.90709 | -6.83732 | 28165 ft | 416 kts | 297° |
| 2026-04-17 12:10 | 37.92110 | -6.86933 | 28773 ft | 414 kts | 296° |
| 2026-04-17 12:10 | 37.93502 | -6.90118 | 29353 ft | 413 kts | 296° |
| 2026-04-17 12:10 | 37.94892 | -6.93304 | 29940 ft | 413 kts | 296° |
| 2026-04-17 12:11 | 37.96277 | -6.96481 | 30436 ft | 412 kts | 296° |
| 2026-04-17 12:11 | 37.97661 | -6.99656 | 30895 ft | 411 kts | 296° |
| 2026-04-17 12:11 | 37.99041 | -7.02827 | 31344 ft | 410 kts | 296° |
| 2026-04-17 12:12 | 38.01722 | -7.09196 | 32096 ft | 410 kts | 290° |
| 2026-04-17 12:12 | 38.02612 | -7.12628 | 32102 ft | 408 kts | 278° |
| 2026-04-17 12:12 | 38.03098 | -7.16163 | 32106 ft | 406 kts | 278° |
| 2026-04-17 12:12 | 38.04024 | -7.19537 | 32093 ft | 409 kts | 298° |
| 2026-04-17 12:13 | 38.05840 | -7.22325 | 32121 ft | 415 kts | 316° |
| 2026-04-17 12:13 | 38.08268 | -7.24342 | 32099 ft | 422 kts | 335° |
| 2026-04-17 12:13 | 38.11023 | -7.25646 | 32121 ft | 424 kts | 339° |
| 2026-04-17 12:14 | 38.16638 | -7.28007 | 32105 ft | 426 kts | 340° |
| 2026-04-17 12:14 | 38.22270 | -7.30354 | 32093 ft | 426 kts | 339° |
| 2026-04-17 12:15 | 38.27881 | -7.32751 | 32093 ft | 425 kts | 339° |
| 2026-04-17 12:15 | 38.33465 | -7.35173 | 32097 ft | 423 kts | 339° |
| 2026-04-17 12:16 | 38.38987 | -7.37581 | 32096 ft | 422 kts | 339° |
| 2026-04-17 12:16 | 38.44529 | -7.40004 | 32110 ft | 421 kts | 339° |
| 2026-04-17 12:17 | 38.50066 | -7.42428 | 32103 ft | 421 kts | 339° |
| 2026-04-17 12:17 | 38.55596 | -7.44852 | 32100 ft | 420 kts | 338° |
| 2026-04-17 12:18 | 38.61130 | -7.47282 | 32105 ft | 420 kts | 338° |
| 2026-04-17 12:18 | 38.66666 | -7.49716 | 32107 ft | 421 kts | 338° |
| 2026-04-17 12:19 | 38.72209 | -7.52157 | 32107 ft | 422 kts | 338° |
| 2026-04-17 12:19 | 38.77754 | -7.54604 | 32102 ft | 421 kts | 338° |
| 2026-04-17 12:20 | 38.83298 | -7.57054 | 32104 ft | 422 kts | 338° |
| 2026-04-17 12:20 | 38.88841 | -7.59507 | 32123 ft | 422 kts | 338° |
| 2026-04-17 12:21 | 38.94405 | -7.61974 | 32111 ft | 422 kts | 338° |
| 2026-04-17 12:21 | 38.99953 | -7.64437 | 32117 ft | 422 kts | 338° |
| 2026-04-17 12:22 | 39.05508 | -7.66909 | 32121 ft | 422 kts | 338° |
| 2026-04-17 12:22 | 39.11056 | -7.69380 | 32123 ft | 422 kts | 338° |
| 2026-04-17 12:23 | 39.16597 | -7.71854 | 32117 ft | 422 kts | 338° |
| 2026-04-17 12:23 | 39.22052 | -7.74288 | 31996 ft | 404 kts | 338° |
| 2026-04-17 12:24 | 39.27341 | -7.76656 | 31973 ft | 407 kts | 338° |
| 2026-04-17 12:24 | 39.32763 | -7.79095 | 31912 ft | 415 kts | 337° |
| 2026-04-17 12:24 | 39.35471 | -7.80310 | 31745 ft | 408 kts | 337° |
| 2026-04-17 12:25 | 39.38136 | -7.81505 | 31409 ft | 404 kts | 337° |
| 2026-04-17 12:25 | 39.40775 | -7.82691 | 31090 ft | 400 kts | 337° |
| 2026-04-17 12:25 | 39.43394 | -7.83869 | 30731 ft | 398 kts | 337° |
| 2026-04-17 12:25 | 39.46001 | -7.85043 | 30382 ft | 395 kts | 337° |
| 2026-04-17 12:26 | 39.48587 | -7.86209 | 30001 ft | 393 kts | 337° |
| 2026-04-17 12:26 | 39.51166 | -7.87374 | 29599 ft | 391 kts | 337° |
| 2026-04-17 12:26 | 39.53723 | -7.88528 | 29212 ft | 388 kts | 337° |
| 2026-04-17 12:26 | 39.56260 | -7.89675 | 28847 ft | 385 kts | 337° |
| 2026-04-17 12:27 | 39.58777 | -7.90813 | 28472 ft | 382 kts | 337° |
| 2026-04-17 12:27 | 39.61279 | -7.91945 | 28109 ft | 379 kts | 337° |
| 2026-04-17 12:27 | 39.63757 | -7.93068 | 27744 ft | 376 kts | 337° |
| 2026-04-17 12:27 | 39.66222 | -7.94185 | 27374 ft | 374 kts | 337° |
| 2026-04-17 12:28 | 39.68669 | -7.95295 | 27029 ft | 371 kts | 337° |
| 2026-04-17 12:28 | 39.71095 | -7.96397 | 26666 ft | 369 kts | 337° |
| 2026-04-17 12:28 | 39.73478 | -7.97480 | 26330 ft | 366 kts | 337° |
| 2026-04-17 12:28 | 39.75878 | -7.98572 | 25985 ft | 365 kts | 337° |
| 2026-04-17 12:29 | 39.78266 | -7.99658 | 25624 ft | 363 kts | 337° |
| 2026-04-17 12:29 | 39.80643 | -8.00741 | 25282 ft | 361 kts | 337° |
| 2026-04-17 12:29 | 39.83012 | -8.01820 | 24931 ft | 360 kts | 337° |
| 2026-04-17 12:29 | 39.85368 | -8.02895 | 24599 ft | 359 kts | 337° |
| 2026-04-17 12:30 | 39.87722 | -8.03970 | 24242 ft | 358 kts | 337° |
| 2026-04-17 12:30 | 39.90073 | -8.05044 | 23897 ft | 358 kts | 337° |
| 2026-04-17 12:30 | 39.92417 | -8.06115 | 23497 ft | 358 kts | 337° |
| 2026-04-17 12:30 | 39.94763 | -8.07189 | 23112 ft | 356 kts | 338° |
| 2026-04-17 12:31 | 39.96339 | -8.07910 | 22873 ft | 354 kts | 338° |
| 2026-04-17 12:31 | 39.98655 | -8.08970 | 22516 ft | 352 kts | 337° |
| 2026-04-17 12:31 | 40.00930 | -8.10012 | 22169 ft | 350 kts | 338° |
| 2026-04-17 12:31 | 40.03219 | -8.11061 | 21826 ft | 348 kts | 338° |
| 2026-04-17 12:32 | 40.05495 | -8.12105 | 21493 ft | 346 kts | 338° |
| 2026-04-17 12:32 | 40.07761 | -8.13145 | 21139 ft | 344 kts | 338° |
| 2026-04-17 12:32 | 40.10006 | -8.14177 | 20812 ft | 341 kts | 338° |
| 2026-04-17 12:32 | 40.12242 | -8.15205 | 20494 ft | 340 kts | 338° |
| 2026-04-17 12:33 | 40.14464 | -8.16228 | 20149 ft | 339 kts | 338° |
| 2026-04-17 12:33 | 40.16680 | -8.17249 | 19831 ft | 337 kts | 338° |
| 2026-04-17 12:33 | 40.18896 | -8.18272 | 19494 ft | 337 kts | 338° |
| 2026-04-17 12:33 | 40.21104 | -8.19289 | 19158 ft | 336 kts | 338° |
| 2026-04-17 12:34 | 40.23297 | -8.20301 | 18848 ft | 335 kts | 338° |
| 2026-04-17 12:34 | 40.25498 | -8.21317 | 18498 ft | 334 kts | 338° |
| 2026-04-17 12:34 | 40.27688 | -8.22330 | 18132 ft | 333 kts | 338° |
| 2026-04-17 12:34 | 40.29866 | -8.23337 | 17779 ft | 331 kts | 338° |
| 2026-04-17 12:35 | 40.32034 | -8.24339 | 17438 ft | 329 kts | 338° |
| 2026-04-17 12:35 | 40.34188 | -8.25336 | 17106 ft | 327 kts | 338° |
| 2026-04-17 12:35 | 40.36331 | -8.26329 | 16768 ft | 326 kts | 338° |
| 2026-04-17 12:35 | 40.38462 | -8.27317 | 16451 ft | 324 kts | 338° |
| 2026-04-17 12:37 | 40.53088 | -8.34117 | 14219 ft | 314 kts | 338° |
| 2026-04-17 12:37 | 40.55144 | -8.35079 | 13917 ft | 313 kts | 338° |
| 2026-04-17 12:38 | 40.57195 | -8.36035 | 13560 ft | 313 kts | 338° |
| 2026-04-17 12:38 | 40.59242 | -8.36990 | 13223 ft | 312 kts | 338° |
| 2026-04-17 12:38 | 40.61281 | -8.37942 | 12890 ft | 310 kts | 338° |
| 2026-04-17 12:38 | 40.63311 | -8.38890 | 12574 ft | 309 kts | 338° |
| 2026-04-17 12:39 | 40.65306 | -8.39822 | 12252 ft | 307 kts | 338° |
| 2026-04-17 12:39 | 40.67314 | -8.40762 | 11939 ft | 305 kts | 338° |
| 2026-04-17 12:39 | 40.69308 | -8.41695 | 11624 ft | 303 kts | 338° |
| 2026-04-17 12:39 | 40.71288 | -8.42623 | 11327 ft | 302 kts | 338° |
| 2026-04-17 12:40 | 40.73252 | -8.43621 | 10918 ft | 303 kts | 332° |
| 2026-04-17 12:40 | 40.75136 | -8.44881 | 10485 ft | 306 kts | 329° |
| 2026-04-17 12:40 | 40.77017 | -8.46231 | 10061 ft | 308 kts | 329° |
| 2026-04-17 12:40 | 40.78856 | -8.47551 | 10086 ft | 294 kts | 329° |
| 2026-04-17 12:41 | 40.80623 | -8.48806 | 9992 ft | 285 kts | 329° |
| 2026-04-17 12:41 | 40.82368 | -8.50034 | 9737 ft | 283 kts | 329° |
| 2026-04-17 12:41 | 40.84112 | -8.51255 | 9425 ft | 284 kts | 329° |
| 2026-04-17 12:41 | 40.85854 | -8.52469 | 9158 ft | 283 kts | 329° |
| 2026-04-17 12:42 | 40.87594 | -8.53677 | 8875 ft | 282 kts | 329° |
| 2026-04-17 12:42 | 40.89327 | -8.54879 | 8607 ft | 281 kts | 329° |
| 2026-04-17 12:42 | 40.91050 | -8.56076 | 8339 ft | 280 kts | 329° |
| 2026-04-17 12:42 | 40.92771 | -8.57273 | 8095 ft | 278 kts | 329° |
| 2026-04-17 12:43 | 40.94470 | -8.58453 | 7982 ft | 272 kts | 329° |
| 2026-04-17 12:43 | 40.96117 | -8.59594 | 7894 ft | 264 kts | 329° |
| 2026-04-17 12:43 | 40.97721 | -8.60703 | 7796 ft | 255 kts | 329° |
| 2026-04-17 12:43 | 40.99351 | -8.61553 | 7687 ft | 251 kts | 346° |
| 2026-04-17 12:44 | 41.01047 | -8.61945 | 7591 ft | 244 kts | 347° |
| 2026-04-17 12:44 | 41.02723 | -8.62154 | 7337 ft | 246 kts | 6° |
| 2026-04-17 12:44 | 41.04317 | -8.61319 | 6977 ft | 251 kts | 39° |
| 2026-04-17 12:44 | 41.05389 | -8.59514 | 6635 ft | 252 kts | 71° |
| 2026-04-17 12:45 | 41.05810 | -8.57275 | 6303 ft | 252 kts | 85° |
| 2026-04-17 12:45 | 41.05676 | -8.54980 | 5833 ft | 252 kts | 114° |
| 2026-04-17 12:45 | 41.04722 | -8.53108 | 5329 ft | 245 kts | 143° |
| 2026-04-17 12:45 | 41.03228 | -8.52075 | 4872 ft | 242 kts | 163° |
| 2026-04-17 12:46 | 41.01576 | -8.51752 | 4343 ft | 242 kts | 184° |
| 2026-04-17 12:46 | 40.99908 | -8.52000 | 3886 ft | 243 kts | 188° |
| 2026-04-17 12:46 | 40.98221 | -8.52336 | 3407 ft | 249 kts | 188° |
| 2026-04-17 12:46 | 40.96491 | -8.52701 | 3077 ft | 251 kts | 189° |
| 2026-04-17 12:47 | 40.94798 | -8.53079 | 3000 ft | 242 kts | 190° |
| 2026-04-17 12:47 | 40.93303 | -8.53919 | 3002 ft | 232 kts | 219° |
| 2026-04-17 12:47 | 40.92407 | -8.55620 | 2991 ft | 226 kts | 252° |
| 2026-04-17 12:47 | 40.92371 | -8.57605 | 3011 ft | 219 kts | 286° |
| 2026-04-17 12:48 | 40.93171 | -8.59262 | 3004 ft | 215 kts | 319° |
| 2026-04-17 12:48 | 40.94417 | -8.60416 | 3018 ft | 217 kts | 326° |
| 2026-04-17 12:48 | 40.95740 | -8.61376 | 2996 ft | 223 kts | 341° |
| 2026-04-17 12:48 | 40.97276 | -8.61684 | 3003 ft | 226 kts | 355° |
| 2026-04-17 12:49 | 40.98825 | -8.61988 | 3011 ft | 223 kts | 349° |
| 2026-04-17 12:49 | 41.00340 | -8.62373 | 2998 ft | 218 kts | 349° |
| 2026-04-17 12:49 | 41.01793 | -8.62718 | 2996 ft | 207 kts | 349° |
| 2026-04-17 12:49 | 41.03171 | -8.63039 | 2986 ft | 202 kts | 349° |
| 2026-04-17 12:50 | 41.04570 | -8.63364 | 3004 ft | 204 kts | 349° |
| 2026-04-17 12:50 | 41.05957 | -8.63688 | 2987 ft | 201 kts | 349° |
| 2026-04-17 12:50 | 41.07317 | -8.64004 | 2992 ft | 197 kts | 349° |
| 2026-04-17 12:50 | 41.08671 | -8.64321 | 3002 ft | 199 kts | 349° |
| 2026-04-17 12:51 | 41.10040 | -8.64640 | 2891 ft | 204 kts | 350° |
| 2026-04-17 12:51 | 41.11435 | -8.64965 | 2628 ft | 202 kts | 350° |
| 2026-04-17 12:51 | 41.12803 | -8.65284 | 2366 ft | 198 kts | 349° |
| 2026-04-17 12:51 | 41.14145 | -8.65597 | 2102 ft | 193 kts | 349° |
| 2026-04-17 12:52 | 41.15448 | -8.65901 | 1844 ft | 185 kts | 349° |
| 2026-04-17 12:52 | 41.16653 | -8.66182 | 1612 ft | 168 kts | 348° |
| 2026-04-17 12:52 | 41.17736 | -8.66435 | 1394 ft | 150 kts | 349° |
| 2026-04-17 12:52 | 41.18716 | -8.66663 | 1221 ft | 138 kts | 348° |
| 2026-04-17 12:53 | 41.19671 | -8.66886 | 1039 ft | 141 kts | 348° |
| 2026-04-17 12:53 | 41.20642 | -8.67116 | 844 ft | 143 kts | 347° |
| 2026-04-17 12:53 | 41.21624 | -8.67334 | 663 ft | 145 kts | 348° |
| 2026-04-17 12:53 | 41.22636 | -8.67548 | 402 ft | 148 kts | 345° |
| 2026-04-17 12:54 | 41.23634 | -8.67814 | 238 ft | 144 kts | 345° |
| 2026-04-17 12:54 | 41.24481 | -8.68041 | 207 ft | 95 kts | 348° |
| 2026-04-17 12:54 | 41.25022 | -8.68174 | 186 ft | 74 kts | 356° |
| 2026-04-17 12:54 | 41.25292 | -8.68066 | 179 ft | 15 kts | 70° |
| 2026-04-17 12:55 | 41.25211 | -8.67995 | 189 ft | 18 kts | 169° |
| 2026-04-17 12:55 | 41.25083 | -8.67963 | 196 ft | 19 kts | 169° |
| 2026-04-17 12:55 | 41.24948 | -8.67931 | 194 ft | 20 kts | 170° |
| 2026-04-17 12:55 | 41.24820 | -8.67866 | 206 ft | 20 kts | 149° |
| 2026-04-17 12:56 | 41.24693 | -8.67809 | 216 ft | 19 kts | 168° |
| 2026-04-17 12:56 | 41.24566 | -8.67775 | 220 ft | 18 kts | 169° |
| 2026-04-17 12:56 | 41.24443 | -8.67743 | 222 ft | 18 kts | 169° |
| 2026-04-17 12:56 | 41.24324 | -8.67712 | 229 ft | 17 kts | 165° |
| 2026-04-17 12:57 | 41.24245 | -8.67604 | 236 ft | 17 kts | 124° |
| 2026-04-17 12:57 | 41.24168 | -8.67490 | 240 ft | 17 kts | 143° |
| 2026-04-17 12:57 | 41.24047 | -8.67423 | 241 ft | 21 kts | 168° |
| 2026-04-17 12:57 | 41.23904 | -8.67486 | 238 ft | 19 kts | 190° |
| 2026-04-17 12:58 | 41.23773 | -8.67455 | 238 ft | 19 kts | 146° |
| 2026-04-17 12:58 | 41.23780 | -8.67386 | 241 ft | 4 kts | 46° |
| 2026-04-17 12:58 | 41.23791 | -8.67369 | 243 ft | 1 kts | 50° |
| 2026-04-17 12:58 | 41.23793 | -8.67366 | 243 ft | 0 kts | 50° |